sensor_id;sensor_type;location;lat;lon;timestamp;P1;durP1;ratioP1;P2;durP2;ratioP2
52586;SDS011;38480;52.724;6.436;2022-12-29T00:01:48;10.13;;;7.77;;
52586;SDS011;38480;52.724;6.436;2022-12-29T00:04:14;10.43;;;7.93;;
52586;SDS011;38480;52.724;6.436;2022-12-29T00:06:41;8.50;;;6.57;;
52586;SDS011;38480;52.724;6.436;2022-12-29T00:09:07;9.87;;;6.90;;
52586;SDS011;38480;52.724;6.436;2022-12-29T00:11:34;11.13;;;6.97;;
52586;SDS011;38480;52.724;6.436;2022-12-29T00:14:00;10.77;;;7.93;;
52586;SDS011;38480;52.724;6.436;2022-12-29T00:16:44;8.63;;;6.93;;
52586;SDS011;38480;52.724;6.436;2022-12-29T00:19:11;12.43;;;8.50;;
52586;SDS011;38480;52.724;6.436;2022-12-29T00:21:57;10.77;;;6.97;;
52586;SDS011;38480;52.724;6.436;2022-12-29T00:24:43;9.97;;;7.47;;
52586;SDS011;38480;52.724;6.436;2022-12-29T00:27:28;10.60;;;7.57;;
52586;SDS011;38480;52.724;6.436;2022-12-29T00:30:14;10.03;;;6.37;;
52586;SDS011;38480;52.724;6.436;2022-12-29T00:32:59;9.73;;;7.57;;
52586;SDS011;38480;52.724;6.436;2022-12-29T00:35:52;11.03;;;6.97;;
52586;SDS011;38480;52.724;6.436;2022-12-29T00:38:19;8.50;;;6.30;;
52586;SDS011;38480;52.724;6.436;2022-12-29T00:41:05;9.73;;;7.07;;
52586;SDS011;38480;52.724;6.436;2022-12-29T00:43:50;8.83;;;5.70;;
52586;SDS011;38480;52.724;6.436;2022-12-29T00:46:35;7.10;;;5.63;;
52586;SDS011;38480;52.724;6.436;2022-12-29T00:49:01;7.43;;;5.67;;
52586;SDS011;38480;52.724;6.436;2022-12-29T00:51:46;14.17;;;6.80;;
52586;SDS011;38480;52.724;6.436;2022-12-29T00:54:13;9.13;;;4.87;;
52586;SDS011;38480;52.724;6.436;2022-12-29T00:56:39;5.87;;;4.73;;
52586;SDS011;38480;52.724;6.436;2022-12-29T00:59:06;6.80;;;5.50;;
52586;SDS011;38480;52.724;6.436;2022-12-29T01:01:33;9.43;;;5.17;;
52586;SDS011;38480;52.724;6.436;2022-12-29T01:03:59;5.37;;;4.03;;
52586;SDS011;38480;52.724;6.436;2022-12-29T01:06:25;7.77;;;4.87;;
52586;SDS011;38480;52.724;6.436;2022-12-29T01:08:51;7.43;;;4.47;;
52586;SDS011;38480;52.724;6.436;2022-12-29T01:11:36;4.90;;;3.97;;
52586;SDS011;38480;52.724;6.436;2022-12-29T01:14:02;5.80;;;3.67;;
52586;SDS011;38480;52.724;6.436;2022-12-29T01:16:28;7.37;;;4.73;;
52586;SDS011;38480;52.724;6.436;2022-12-29T01:18:54;6.33;;;3.93;;
52586;SDS011;38480;52.724;6.436;2022-12-29T01:21:20;5.23;;;3.57;;
52586;SDS011;38480;52.724;6.436;2022-12-29T01:23:46;6.93;;;3.90;;
52586;SDS011;38480;52.724;6.436;2022-12-29T01:26:13;7.33;;;4.57;;
52586;SDS011;38480;52.724;6.436;2022-12-29T01:28:39;5.63;;;3.50;;
52586;SDS011;38480;52.724;6.436;2022-12-29T01:31:06;5.33;;;3.50;;
52586;SDS011;38480;52.724;6.436;2022-12-29T01:33:33;4.90;;;3.50;;
52586;SDS011;38480;52.724;6.436;2022-12-29T01:36:02;5.70;;;3.43;;
52586;SDS011;38480;52.724;6.436;2022-12-29T01:38:28;5.77;;;4.00;;
52586;SDS011;38480;52.724;6.436;2022-12-29T01:40:55;4.97;;;3.73;;
52586;SDS011;38480;52.724;6.436;2022-12-29T01:43:21;5.97;;;3.40;;
52586;SDS011;38480;52.724;6.436;2022-12-29T01:45:48;7.37;;;3.80;;
52586;SDS011;38480;52.724;6.436;2022-12-29T01:48:15;4.23;;;3.47;;
52586;SDS011;38480;52.724;6.436;2022-12-29T01:50:43;6.63;;;3.50;;
52586;SDS011;38480;52.724;6.436;2022-12-29T01:53:13;8.70;;;3.47;;
52586;SDS011;38480;52.724;6.436;2022-12-29T01:55:46;5.17;;;2.90;;
52586;SDS011;38480;52.724;6.436;2022-12-29T01:58:14;4.13;;;2.77;;
52586;SDS011;38480;52.724;6.436;2022-12-29T02:00:40;5.57;;;3.00;;
52586;SDS011;38480;52.724;6.436;2022-12-29T02:03:06;4.30;;;2.93;;
52586;SDS011;38480;52.724;6.436;2022-12-29T02:05:40;7.93;;;3.00;;
52586;SDS011;38480;52.724;6.436;2022-12-29T02:08:08;4.77;;;2.87;;
52586;SDS011;38480;52.724;6.436;2022-12-29T02:10:35;4.73;;;2.63;;
52586;SDS011;38480;52.724;6.436;2022-12-29T02:13:01;4.30;;;3.10;;
52586;SDS011;38480;52.724;6.436;2022-12-29T02:15:33;3.73;;;2.80;;
52586;SDS011;38480;52.724;6.436;2022-12-29T02:18:03;5.05;;;3.05;;
52586;SDS011;38480;52.724;6.436;2022-12-29T02:33:55;4.93;;;3.50;;
52586;SDS011;38480;52.724;6.436;2022-12-29T02:36:37;6.23;;;4.20;;
52586;SDS011;38480;52.724;6.436;2022-12-29T02:39:12;7.40;;;4.77;;
52586;SDS011;38480;52.724;6.436;2022-12-29T02:44:34;11.73;;;4.03;;
52586;SDS011;38480;52.724;6.436;2022-12-29T02:47:04;7.53;;;3.83;;
52586;SDS011;38480;52.724;6.436;2022-12-29T02:49:36;6.97;;;4.63;;
52586;SDS011;38480;52.724;6.436;2022-12-29T02:52:08;13.93;;;4.40;;
52586;SDS011;38480;52.724;6.436;2022-12-29T02:54:35;7.07;;;4.00;;
52586;SDS011;38480;52.724;6.436;2022-12-29T02:57:30;5.97;;;4.27;;
52586;SDS011;38480;52.724;6.436;2022-12-29T03:00:08;5.50;;;3.60;;
52586;SDS011;38480;52.724;6.436;2022-12-29T03:10:33;5.20;;;2.50;;
52586;SDS011;38480;52.724;6.436;2022-12-29T03:13:02;6.50;;;2.63;;
52586;SDS011;38480;52.724;6.436;2022-12-29T03:18:36;6.97;;;2.73;;
52586;SDS011;38480;52.724;6.436;2022-12-29T03:21:05;4.80;;;2.30;;
52586;SDS011;38480;52.724;6.436;2022-12-29T03:23:33;4.40;;;3.40;;
52586;SDS011;38480;52.724;6.436;2022-12-29T03:26:01;5.43;;;2.50;;
52586;SDS011;38480;52.724;6.436;2022-12-29T03:28:29;5.33;;;3.00;;
52586;SDS011;38480;52.724;6.436;2022-12-29T03:30:57;4.50;;;2.90;;
52586;SDS011;38480;52.724;6.436;2022-12-29T03:33:24;5.87;;;2.63;;
52586;SDS011;38480;52.724;6.436;2022-12-29T03:35:51;4.33;;;2.20;;
52586;SDS011;38480;52.724;6.436;2022-12-29T03:38:23;13.43;;;2.30;;
52586;SDS011;38480;52.724;6.436;2022-12-29T03:40:55;4.40;;;1.77;;
52586;SDS011;38480;52.724;6.436;2022-12-29T03:43:22;10.67;;;3.27;;
52586;SDS011;38480;52.724;6.436;2022-12-29T03:45:48;5.00;;;1.83;;
52586;SDS011;38480;52.724;6.436;2022-12-29T03:48:14;9.57;;;2.60;;
52586;SDS011;38480;52.724;6.436;2022-12-29T03:50:40;4.93;;;1.60;;
52586;SDS011;38480;52.724;6.436;2022-12-29T03:53:06;6.67;;;2.13;;
52586;SDS011;38480;52.724;6.436;2022-12-29T03:55:32;5.70;;;2.00;;
52586;SDS011;38480;52.724;6.436;2022-12-29T03:57:58;8.37;;;2.10;;
52586;SDS011;38480;52.724;6.436;2022-12-29T04:00:24;14.50;;;2.10;;
52586;SDS011;38480;52.724;6.436;2022-12-29T04:02:51;33.27;;;4.10;;
52586;SDS011;38480;52.724;6.436;2022-12-29T04:05:17;9.00;;;3.57;;
52586;SDS011;38480;52.724;6.436;2022-12-29T04:07:43;6.93;;;2.50;;
52586;SDS011;38480;52.724;6.436;2022-12-29T04:10:09;7.03;;;2.27;;
52586;SDS011;38480;52.724;6.436;2022-12-29T04:12:35;5.43;;;2.03;;
52586;SDS011;38480;52.724;6.436;2022-12-29T04:15:01;3.87;;;1.57;;
52586;SDS011;38480;52.724;6.436;2022-12-29T04:17:27;5.13;;;1.80;;
52586;SDS011;38480;52.724;6.436;2022-12-29T04:19:53;6.90;;;1.57;;
52586;SDS011;38480;52.724;6.436;2022-12-29T04:22:39;6.00;;;1.47;;
52586;SDS011;38480;52.724;6.436;2022-12-29T04:25:06;3.37;;;1.17;;
52586;SDS011;38480;52.724;6.436;2022-12-29T04:27:32;7.73;;;2.30;;
52586;SDS011;38480;52.724;6.436;2022-12-29T04:29:58;3.50;;;1.30;;
52586;SDS011;38480;52.724;6.436;2022-12-29T04:32:24;8.23;;;1.87;;
52586;SDS011;38480;52.724;6.436;2022-12-29T04:34:50;8.80;;;1.80;;
52586;SDS011;38480;52.724;6.436;2022-12-29T04:37:16;6.90;;;1.40;;
52586;SDS011;38480;52.724;6.436;2022-12-29T04:39:42;10.00;;;1.63;;
52586;SDS011;38480;52.724;6.436;2022-12-29T04:42:08;8.07;;;1.67;;
52586;SDS011;38480;52.724;6.436;2022-12-29T04:44:34;11.00;;;2.43;;
52586;SDS011;38480;52.724;6.436;2022-12-29T04:47:00;7.67;;;1.53;;
52586;SDS011;38480;52.724;6.436;2022-12-29T04:49:26;8.40;;;1.37;;
52586;SDS011;38480;52.724;6.436;2022-12-29T04:51:52;8.23;;;1.83;;
52586;SDS011;38480;52.724;6.436;2022-12-29T04:54:18;8.80;;;1.67;;
52586;SDS011;38480;52.724;6.436;2022-12-29T04:56:44;7.40;;;1.40;;
52586;SDS011;38480;52.724;6.436;2022-12-29T04:59:10;4.73;;;1.20;;
52586;SDS011;38480;52.724;6.436;2022-12-29T05:01:36;9.33;;;2.03;;
52586;SDS011;38480;52.724;6.436;2022-12-29T05:04:02;5.00;;;1.77;;
52586;SDS011;38480;52.724;6.436;2022-12-29T05:06:28;6.03;;;1.40;;
52586;SDS011;38480;52.724;6.436;2022-12-29T05:08:54;8.40;;;1.43;;
52586;SDS011;38480;52.724;6.436;2022-12-29T05:11:20;10.20;;;1.40;;
52586;SDS011;38480;52.724;6.436;2022-12-29T05:13:46;8.13;;;1.87;;
52586;SDS011;38480;52.724;6.436;2022-12-29T05:16:12;8.80;;;2.00;;
52586;SDS011;38480;52.724;6.436;2022-12-29T05:18:38;4.93;;;1.17;;
52586;SDS011;38480;52.724;6.436;2022-12-29T05:21:04;7.50;;;1.93;;
52586;SDS011;38480;52.724;6.436;2022-12-29T05:23:30;7.13;;;1.63;;
52586;SDS011;38480;52.724;6.436;2022-12-29T05:25:56;9.03;;;1.57;;
52586;SDS011;38480;52.724;6.436;2022-12-29T05:28:22;9.17;;;1.47;;
52586;SDS011;38480;52.724;6.436;2022-12-29T05:30:49;8.77;;;1.40;;
52586;SDS011;38480;52.724;6.436;2022-12-29T05:33:15;6.37;;;1.53;;
52586;SDS011;38480;52.724;6.436;2022-12-29T05:35:42;5.33;;;1.90;;
52586;SDS011;38480;52.724;6.436;2022-12-29T05:38:08;8.70;;;1.83;;
52586;SDS011;38480;52.724;6.436;2022-12-29T05:40:34;8.13;;;2.03;;
52586;SDS011;38480;52.724;6.436;2022-12-29T05:43:00;7.27;;;1.40;;
52586;SDS011;38480;52.724;6.436;2022-12-29T05:45:26;5.77;;;1.53;;
52586;SDS011;38480;52.724;6.436;2022-12-29T05:47:52;6.43;;;1.57;;
52586;SDS011;38480;52.724;6.436;2022-12-29T05:50:18;5.70;;;1.53;;
52586;SDS011;38480;52.724;6.436;2022-12-29T05:52:44;7.03;;;1.90;;
52586;SDS011;38480;52.724;6.436;2022-12-29T05:55:11;4.97;;;1.50;;
52586;SDS011;38480;52.724;6.436;2022-12-29T05:57:37;4.67;;;1.70;;
52586;SDS011;38480;52.724;6.436;2022-12-29T06:00:03;11.83;;;1.70;;
52586;SDS011;38480;52.724;6.436;2022-12-29T06:02:30;4.87;;;1.50;;
52586;SDS011;38480;52.724;6.436;2022-12-29T06:04:56;10.20;;;2.33;;
52586;SDS011;38480;52.724;6.436;2022-12-29T06:07:22;9.30;;;2.40;;
52586;SDS011;38480;52.724;6.436;2022-12-29T06:09:48;11.90;;;1.70;;
52586;SDS011;38480;52.724;6.436;2022-12-29T06:12:14;8.53;;;1.50;;
52586;SDS011;38480;52.724;6.436;2022-12-29T06:14:40;7.93;;;1.50;;
52586;SDS011;38480;52.724;6.436;2022-12-29T06:17:06;8.47;;;1.77;;
52586;SDS011;38480;52.724;6.436;2022-12-29T06:19:32;11.00;;;1.77;;
52586;SDS011;38480;52.724;6.436;2022-12-29T06:21:58;13.13;;;1.90;;
52586;SDS011;38480;52.724;6.436;2022-12-29T06:24:24;7.20;;;1.63;;
52586;SDS011;38480;52.724;6.436;2022-12-29T06:26:50;8.23;;;1.80;;
52586;SDS011;38480;52.724;6.436;2022-12-29T06:29:16;8.30;;;1.30;;
52586;SDS011;38480;52.724;6.436;2022-12-29T06:31:43;6.43;;;1.30;;
52586;SDS011;38480;52.724;6.436;2022-12-29T06:34:11;8.07;;;2.10;;
52586;SDS011;38480;52.724;6.436;2022-12-29T06:36:37;5.27;;;1.20;;
52586;SDS011;38480;52.724;6.436;2022-12-29T06:39:03;7.00;;;1.60;;
52586;SDS011;38480;52.724;6.436;2022-12-29T06:41:29;7.67;;;2.07;;
52586;SDS011;38480;52.724;6.436;2022-12-29T06:43:55;6.83;;;1.83;;
52586;SDS011;38480;52.724;6.436;2022-12-29T06:46:21;8.50;;;1.80;;
52586;SDS011;38480;52.724;6.436;2022-12-29T06:48:47;6.73;;;2.70;;
52586;SDS011;38480;52.724;6.436;2022-12-29T06:51:13;7.47;;;1.57;;
52586;SDS011;38480;52.724;6.436;2022-12-29T06:53:39;10.07;;;1.60;;
52586;SDS011;38480;52.724;6.436;2022-12-29T06:56:05;9.73;;;2.47;;
52586;SDS011;38480;52.724;6.436;2022-12-29T06:58:31;9.50;;;2.00;;
52586;SDS011;38480;52.724;6.436;2022-12-29T07:00:57;6.53;;;2.00;;
52586;SDS011;38480;52.724;6.436;2022-12-29T07:03:23;8.77;;;1.70;;
52586;SDS011;38480;52.724;6.436;2022-12-29T07:05:50;12.37;;;3.10;;
52586;SDS011;38480;52.724;6.436;2022-12-29T07:08:16;11.70;;;2.13;;
52586;SDS011;38480;52.724;6.436;2022-12-29T07:10:42;13.57;;;2.07;;
52586;SDS011;38480;52.724;6.436;2022-12-29T07:13:08;13.93;;;2.50;;
52586;SDS011;38480;52.724;6.436;2022-12-29T07:15:35;12.73;;;2.03;;
52586;SDS011;38480;52.724;6.436;2022-12-29T07:18:02;12.13;;;2.30;;
52586;SDS011;38480;52.724;6.436;2022-12-29T07:20:28;9.40;;;2.03;;
52586;SDS011;38480;52.724;6.436;2022-12-29T07:22:54;16.83;;;2.40;;
52586;SDS011;38480;52.724;6.436;2022-12-29T07:25:21;12.33;;;1.93;;
52586;SDS011;38480;52.724;6.436;2022-12-29T07:27:47;10.53;;;1.93;;
52586;SDS011;38480;52.724;6.436;2022-12-29T07:30:13;11.47;;;1.70;;
52586;SDS011;38480;52.724;6.436;2022-12-29T07:32:39;16.23;;;3.07;;
52586;SDS011;38480;52.724;6.436;2022-12-29T07:35:06;10.67;;;1.90;;
52586;SDS011;38480;52.724;6.436;2022-12-29T07:37:32;13.70;;;2.53;;
52586;SDS011;38480;52.724;6.436;2022-12-29T07:39:58;11.70;;;2.47;;
52586;SDS011;38480;52.724;6.436;2022-12-29T07:42:24;11.00;;;1.97;;
52586;SDS011;38480;52.724;6.436;2022-12-29T07:44:50;11.27;;;1.87;;
52586;SDS011;38480;52.724;6.436;2022-12-29T07:47:16;12.13;;;2.50;;
52586;SDS011;38480;52.724;6.436;2022-12-29T07:49:42;12.77;;;2.83;;
52586;SDS011;38480;52.724;6.436;2022-12-29T07:52:08;15.40;;;2.60;;
52586;SDS011;38480;52.724;6.436;2022-12-29T07:54:34;15.87;;;2.07;;
52586;SDS011;38480;52.724;6.436;2022-12-29T07:57:00;8.20;;;1.60;;
52586;SDS011;38480;52.724;6.436;2022-12-29T07:59:26;17.03;;;2.60;;
52586;SDS011;38480;52.724;6.436;2022-12-29T08:01:52;9.93;;;2.73;;
52586;SDS011;38480;52.724;6.436;2022-12-29T08:04:18;17.33;;;3.60;;
52586;SDS011;38480;52.724;6.436;2022-12-29T08:06:44;15.73;;;2.20;;
52586;SDS011;38480;52.724;6.436;2022-12-29T08:09:10;15.53;;;3.43;;
52586;SDS011;38480;52.724;6.436;2022-12-29T08:11:36;14.63;;;2.97;;
52586;SDS011;38480;52.724;6.436;2022-12-29T08:14:03;9.47;;;3.17;;
52586;SDS011;38480;52.724;6.436;2022-12-29T08:16:29;12.70;;;2.93;;
52586;SDS011;38480;52.724;6.436;2022-12-29T08:18:56;13.80;;;2.80;;
52586;SDS011;38480;52.724;6.436;2022-12-29T08:21:22;17.70;;;3.37;;
52586;SDS011;38480;52.724;6.436;2022-12-29T08:23:48;14.00;;;2.43;;
52586;SDS011;38480;52.724;6.436;2022-12-29T08:26:14;17.00;;;2.90;;
52586;SDS011;38480;52.724;6.436;2022-12-29T08:28:40;14.63;;;2.10;;
52586;SDS011;38480;52.724;6.436;2022-12-29T08:31:06;16.87;;;2.50;;
52586;SDS011;38480;52.724;6.436;2022-12-29T08:33:32;14.73;;;2.20;;
52586;SDS011;38480;52.724;6.436;2022-12-29T08:36:02;13.20;;;2.33;;
52586;SDS011;38480;52.724;6.436;2022-12-29T08:38:28;12.87;;;2.73;;
52586;SDS011;38480;52.724;6.436;2022-12-29T08:40:55;8.33;;;2.20;;
52586;SDS011;38480;52.724;6.436;2022-12-29T08:43:21;14.30;;;2.83;;
52586;SDS011;38480;52.724;6.436;2022-12-29T08:45:47;11.00;;;3.37;;
52586;SDS011;38480;52.724;6.436;2022-12-29T08:48:13;11.80;;;2.13;;
52586;SDS011;38480;52.724;6.436;2022-12-29T08:50:43;13.70;;;2.63;;
52586;SDS011;38480;52.724;6.436;2022-12-29T08:53:09;9.47;;;2.87;;
52586;SDS011;38480;52.724;6.436;2022-12-29T08:55:35;9.77;;;2.77;;
52586;SDS011;38480;52.724;6.436;2022-12-29T08:58:01;9.17;;;1.97;;
52586;SDS011;38480;52.724;6.436;2022-12-29T09:00:27;9.67;;;1.83;;
52586;SDS011;38480;52.724;6.436;2022-12-29T09:02:53;9.97;;;1.93;;
52586;SDS011;38480;52.724;6.436;2022-12-29T09:05:19;16.40;;;3.20;;
52586;SDS011;38480;52.724;6.436;2022-12-29T09:07:45;10.83;;;2.07;;
52586;SDS011;38480;52.724;6.436;2022-12-29T09:10:11;11.70;;;2.00;;
52586;SDS011;38480;52.724;6.436;2022-12-29T09:12:37;10.97;;;3.80;;
52586;SDS011;38480;52.724;6.436;2022-12-29T09:15:04;15.60;;;4.17;;
52586;SDS011;38480;52.724;6.436;2022-12-29T09:17:30;14.47;;;2.13;;
52586;SDS011;38480;52.724;6.436;2022-12-29T09:20:09;17.10;;;3.40;;
52586;SDS011;38480;52.724;6.436;2022-12-29T09:22:36;14.97;;;2.53;;
52586;SDS011;38480;52.724;6.436;2022-12-29T09:25:02;15.23;;;2.57;;
52586;SDS011;38480;52.724;6.436;2022-12-29T09:27:28;19.37;;;2.83;;
52586;SDS011;38480;52.724;6.436;2022-12-29T09:29:55;9.80;;;2.30;;
52586;SDS011;38480;52.724;6.436;2022-12-29T09:32:21;9.67;;;1.50;;
52586;SDS011;38480;52.724;6.436;2022-12-29T09:34:47;12.50;;;2.27;;
52586;SDS011;38480;52.724;6.436;2022-12-29T09:37:13;13.23;;;3.47;;
52586;SDS011;38480;52.724;6.436;2022-12-29T09:39:39;9.83;;;2.17;;
52586;SDS011;38480;52.724;6.436;2022-12-29T09:47:10;8.40;;;2.63;;
52586;SDS011;38480;52.724;6.436;2022-12-29T09:49:44;10.93;;;2.07;;
52586;SDS011;38480;52.724;6.436;2022-12-29T09:52:15;12.90;;;2.67;;
52586;SDS011;38480;52.724;6.436;2022-12-29T09:57:18;17.20;;;2.63;;
52586;SDS011;38480;52.724;6.436;2022-12-29T09:59:46;9.53;;;2.57;;
52586;SDS011;38480;52.724;6.436;2022-12-29T10:04:49;12.87;;;2.87;;
52586;SDS011;38480;52.724;6.436;2022-12-29T10:09:44;9.57;;;2.83;;
52586;SDS011;38480;52.724;6.436;2022-12-29T10:12:31;9.07;;;2.20;;
52586;SDS011;38480;52.724;6.436;2022-12-29T10:24:55;16.23;;;2.00;;
52586;SDS011;38480;52.724;6.436;2022-12-29T10:27:22;12.20;;;2.57;;
52586;SDS011;38480;52.724;6.436;2022-12-29T10:29:50;10.77;;;2.50;;
52586;SDS011;38480;52.724;6.436;2022-12-29T10:32:29;10.37;;;2.03;;
52586;SDS011;38480;52.724;6.436;2022-12-29T10:35:39;9.67;;;2.10;;
52586;SDS011;38480;52.724;6.436;2022-12-29T10:37:55;10.37;;;2.50;;
52586;SDS011;38480;52.724;6.436;2022-12-29T10:43:17;12.47;;;2.87;;
52586;SDS011;38480;52.724;6.436;2022-12-29T10:45:46;9.10;;;2.17;;
52586;SDS011;38480;52.724;6.436;2022-12-29T10:48:17;14.00;;;2.00;;
52586;SDS011;38480;52.724;6.436;2022-12-29T10:50:45;11.13;;;1.93;;
52586;SDS011;38480;52.724;6.436;2022-12-29T10:53:15;9.03;;;2.27;;
52586;SDS011;38480;52.724;6.436;2022-12-29T10:55:42;7.60;;;1.90;;
52586;SDS011;38480;52.724;6.436;2022-12-29T10:58:10;11.23;;;2.40;;
52586;SDS011;38480;52.724;6.436;2022-12-29T11:00:37;10.23;;;2.13;;
52586;SDS011;38480;52.724;6.436;2022-12-29T11:03:16;11.53;;;2.20;;
52586;SDS011;38480;52.724;6.436;2022-12-29T11:08:15;10.83;;;2.40;;
52586;SDS011;38480;52.724;6.436;2022-12-29T11:10:43;13.03;;;2.70;;
52586;SDS011;38480;52.724;6.436;2022-12-29T11:13:16;13.53;;;2.40;;
52586;SDS011;38480;52.724;6.436;2022-12-29T11:15:46;13.95;;;2.35;;
52586;SDS011;38480;52.724;6.436;2022-12-29T11:18:55;12.60;;;2.43;;
52586;SDS011;38480;52.724;6.436;2022-12-29T11:21:03;9.50;;;2.73;;
52586;SDS011;38480;52.724;6.436;2022-12-29T11:23:33;18.77;;;3.07;;
52586;SDS011;38480;52.724;6.436;2022-12-29T11:28:38;14.50;;;3.13;;
52586;SDS011;38480;52.724;6.436;2022-12-29T11:31:05;14.23;;;3.83;;
52586;SDS011;38480;52.724;6.436;2022-12-29T11:33:32;17.13;;;4.40;;
52586;SDS011;38480;52.724;6.436;2022-12-29T11:36:02;17.60;;;3.70;;
52586;SDS011;38480;52.724;6.436;2022-12-29T11:38:33;14.53;;;3.70;;
52586;SDS011;38480;52.724;6.436;2022-12-29T11:40:59;11.30;;;3.77;;
52586;SDS011;38480;52.724;6.436;2022-12-29T11:43:32;19.77;;;3.43;;
52586;SDS011;38480;52.724;6.436;2022-12-29T11:45:59;17.48;;;3.78;;
52586;SDS011;38480;52.724;6.436;2022-12-29T11:48:28;17.57;;;4.37;;
52586;SDS011;38480;52.724;6.436;2022-12-29T11:50:55;19.93;;;3.90;;
52586;SDS011;38480;52.724;6.436;2022-12-29T11:53:25;18.33;;;4.03;;
52586;SDS011;38480;52.724;6.436;2022-12-29T11:58:18;18.87;;;5.17;;
52586;SDS011;38480;52.724;6.436;2022-12-29T12:00:44;20.50;;;3.83;;
52586;SDS011;38480;52.724;6.436;2022-12-29T12:03:13;15.00;;;3.93;;
52586;SDS011;38480;52.724;6.436;2022-12-29T12:10:38;16.07;;;3.10;;
52586;SDS011;38480;52.724;6.436;2022-12-29T12:15:57;15.00;;;3.43;;
52586;SDS011;38480;52.724;6.436;2022-12-29T12:18:30;21.47;;;4.13;;
52586;SDS011;38480;52.724;6.436;2022-12-29T12:21:00;14.57;;;3.63;;
52586;SDS011;38480;52.724;6.436;2022-12-29T12:31:02;19.27;;;5.33;;
52586;SDS011;38480;52.724;6.436;2022-12-29T12:33:38;17.77;;;4.07;;
52586;SDS011;38480;52.724;6.436;2022-12-29T12:41:45;18.77;;;3.70;;
52586;SDS011;38480;52.724;6.436;2022-12-29T12:46:54;20.40;;;4.10;;
52586;SDS011;38480;52.724;6.436;2022-12-29T12:57:40;26.70;;;5.37;;
52586;SDS011;38480;52.724;6.436;2022-12-29T13:00:03;22.37;;;4.17;;
52586;SDS011;38480;52.724;6.436;2022-12-29T13:02:37;22.77;;;4.83;;
52586;SDS011;38480;52.724;6.436;2022-12-29T13:18:32;34.53;;;5.13;;
52586;SDS011;38480;52.724;6.436;2022-12-29T13:21:02;26.73;;;4.57;;
52586;SDS011;38480;52.724;6.436;2022-12-29T13:23:39;16.73;;;3.30;;
52586;SDS011;38480;52.724;6.436;2022-12-29T13:34:03;20.17;;;4.20;;
52586;SDS011;38480;52.724;6.436;2022-12-29T13:36:36;19.60;;;3.63;;
52586;SDS011;38480;52.724;6.436;2022-12-29T13:39:11;22.90;;;3.87;;
52586;SDS011;38480;52.724;6.436;2022-12-29T13:41:51;23.97;;;3.57;;
52586;SDS011;38480;52.724;6.436;2022-12-29T13:44:23;17.57;;;3.70;;
52586;SDS011;38480;52.724;6.436;2022-12-29T13:46:50;19.77;;;3.40;;
52586;SDS011;38480;52.724;6.436;2022-12-29T13:49:20;20.03;;;4.40;;
52586;SDS011;38480;52.724;6.436;2022-12-29T13:51:54;26.03;;;4.70;;
52586;SDS011;38480;52.724;6.436;2022-12-29T14:04:24;21.67;;;4.00;;
52586;SDS011;38480;52.724;6.436;2022-12-29T14:07:24;20.33;;;3.40;;
52586;SDS011;38480;52.724;6.436;2022-12-29T14:12:24;27.53;;;5.50;;
52586;SDS011;38480;52.724;6.436;2022-12-29T14:14:53;20.27;;;3.47;;
52586;SDS011;38480;52.724;6.436;2022-12-29T14:17:20;23.27;;;4.53;;
52586;SDS011;38480;52.724;6.436;2022-12-29T14:19:46;17.70;;;3.17;;
52586;SDS011;38480;52.724;6.436;2022-12-29T14:22:22;16.57;;;2.97;;
52586;SDS011;38480;52.724;6.436;2022-12-29T14:24:48;13.93;;;2.87;;
52586;SDS011;38480;52.724;6.436;2022-12-29T14:37:38;19.93;;;3.50;;
52586;SDS011;38480;52.724;6.436;2022-12-29T14:42:30;22.63;;;3.73;;
52586;SDS011;38480;52.724;6.436;2022-12-29T14:45:06;23.23;;;5.20;;
52586;SDS011;38480;52.724;6.436;2022-12-29T14:50:03;15.17;;;2.57;;
52586;SDS011;38480;52.724;6.436;2022-12-29T14:52:30;15.43;;;2.63;;
52586;SDS011;38480;52.724;6.436;2022-12-29T14:54:57;17.43;;;3.43;;
52586;SDS011;38480;52.724;6.436;2022-12-29T15:00:00;13.27;;;2.40;;
52586;SDS011;38480;52.724;6.436;2022-12-29T15:02:31;20.27;;;3.00;;
52586;SDS011;38480;52.724;6.436;2022-12-29T15:04:59;16.63;;;3.87;;
52586;SDS011;38480;52.724;6.436;2022-12-29T15:07:26;17.83;;;3.40;;
52586;SDS011;38480;52.724;6.436;2022-12-29T15:10:00;20.07;;;3.37;;
52586;SDS011;38480;52.724;6.436;2022-12-29T15:12:35;17.23;;;3.60;;
52586;SDS011;38480;52.724;6.436;2022-12-29T15:15:13;15.77;;;3.10;;
52586;SDS011;38480;52.724;6.436;2022-12-29T15:17:42;18.83;;;3.73;;
52586;SDS011;38480;52.724;6.436;2022-12-29T15:22:44;25.03;;;4.73;;
52586;SDS011;38480;52.724;6.436;2022-12-29T15:25:14;14.13;;;2.93;;
52586;SDS011;38480;52.724;6.436;2022-12-29T15:27:41;14.63;;;2.70;;
52586;SDS011;38480;52.724;6.436;2022-12-29T15:30:12;23.17;;;4.93;;
52586;SDS011;38480;52.724;6.436;2022-12-29T15:32:39;17.50;;;4.27;;
52586;SDS011;38480;52.724;6.436;2022-12-29T15:35:22;21.83;;;4.70;;
52586;SDS011;38480;52.724;6.436;2022-12-29T15:37:48;15.33;;;3.27;;
52586;SDS011;38480;52.724;6.436;2022-12-29T15:40:21;16.43;;;3.73;;
52586;SDS011;38480;52.724;6.436;2022-12-29T15:45:18;18.03;;;3.43;;
52586;SDS011;38480;52.724;6.436;2022-12-29T15:47:44;20.83;;;3.17;;
52586;SDS011;38480;52.724;6.436;2022-12-29T15:52:39;12.60;;;4.77;;
52586;SDS011;38480;52.724;6.436;2022-12-29T15:55:06;8.93;;;2.50;;
52586;SDS011;38480;52.724;6.436;2022-12-29T15:57:37;14.23;;;2.83;;
52586;SDS011;38480;52.724;6.436;2022-12-29T16:00:23;11.03;;;2.73;;
52586;SDS011;38480;52.724;6.436;2022-12-29T16:02:50;11.82;;;2.80;;
52586;SDS011;38480;52.724;6.436;2022-12-29T16:05:17;13.17;;;3.43;;
52586;SDS011;38480;52.724;6.436;2022-12-29T16:07:53;13.97;;;2.63;;
52586;SDS011;38480;52.724;6.436;2022-12-29T16:10:27;13.17;;;3.23;;
52586;SDS011;38480;52.724;6.436;2022-12-29T16:13:01;7.13;;;2.30;;
52586;SDS011;38480;52.724;6.436;2022-12-29T16:15:27;11.87;;;2.83;;
52586;SDS011;38480;52.724;6.436;2022-12-29T16:17:53;14.00;;;3.03;;
52586;SDS011;38480;52.724;6.436;2022-12-29T16:20:36;10.10;;;2.70;;
52586;SDS011;38480;52.724;6.436;2022-12-29T16:23:03;11.55;;;2.63;;
52586;SDS011;38480;52.724;6.436;2022-12-29T16:25:33;6.87;;;2.70;;
52586;SDS011;38480;52.724;6.436;2022-12-29T16:28:02;13.52;;;3.75;;
52586;SDS011;38480;52.724;6.436;2022-12-29T16:30:38;9.23;;;2.40;;
52586;SDS011;38480;52.724;6.436;2022-12-29T16:33:05;11.47;;;2.37;;
52586;SDS011;38480;52.724;6.436;2022-12-29T16:35:44;13.00;;;2.20;;
52586;SDS011;38480;52.724;6.436;2022-12-29T16:38:20;9.03;;;2.00;;
52586;SDS011;38480;52.724;6.436;2022-12-29T16:43:19;8.13;;;2.20;;
52586;SDS011;38480;52.724;6.436;2022-12-29T16:50:44;6.23;;;2.73;;
52586;SDS011;38480;52.724;6.436;2022-12-29T16:53:21;9.60;;;3.17;;
52586;SDS011;38480;52.724;6.436;2022-12-29T16:55:49;14.77;;;3.17;;
52586;SDS011;38480;52.724;6.436;2022-12-29T16:58:18;12.10;;;2.77;;
52586;SDS011;38480;52.724;6.436;2022-12-29T17:00:46;11.60;;;3.10;;
52586;SDS011;38480;52.724;6.436;2022-12-29T17:03:12;15.17;;;4.10;;
52586;SDS011;38480;52.724;6.436;2022-12-29T17:05:39;15.47;;;3.90;;
52586;SDS011;38480;52.724;6.436;2022-12-29T17:08:17;13.43;;;4.00;;
52586;SDS011;38480;52.724;6.436;2022-12-29T17:10:54;16.27;;;4.47;;
52586;SDS011;38480;52.724;6.436;2022-12-29T17:13:39;13.27;;;4.60;;
52586;SDS011;38480;52.724;6.436;2022-12-29T17:16:06;14.77;;;3.67;;
52586;SDS011;38480;52.724;6.436;2022-12-29T17:18:32;16.53;;;4.10;;
52586;SDS011;38480;52.724;6.436;2022-12-29T17:20:58;13.50;;;4.70;;
52586;SDS011;38480;52.724;6.436;2022-12-29T17:23:25;16.77;;;5.50;;
52586;SDS011;38480;52.724;6.436;2022-12-29T17:25:51;16.07;;;4.60;;
52586;SDS011;38480;52.724;6.436;2022-12-29T17:30:44;17.67;;;5.00;;
52586;SDS011;38480;52.724;6.436;2022-12-29T17:33:11;15.40;;;5.80;;